Time;durP1;ratioP1;P1;durP2;ratioP2;P2;SDS_P1;SDS_P2;PMS_P1;PMS_P2;Temp;Humidity;BMP_temperature;BMP_pressure;BME280_temperature;BME280_humidity;BME280_pressure;Samples;Min_cycle;Max_cycle;Signal;HPM_P1;HPM_P2
2023/07/03 00:01:15;;;;;;;15.23;9.30;;;;;;;18.55;76.25;97855.56;4154663;28;21236;-80
2023/07/03 00:03:18;;;;;;;16.77;10.20;;;;;;;18.56;76.58;97851.91;4154366;28;20692;-80
2023/07/03 00:05:23;;;;;;;16.77;9.53;;;;;;;18.53;77.67;97856.69;4154833;28;20676;-80
2023/07/03 00:07:26;;;;;;;18.40;10.10;;;;;;;18.49;77.70;97855.34;4157581;28;21170;-80
2023/07/03 00:09:30;;;;;;;15.20;9.87;;;;;;;18.45;77.86;97848.75;4155858;28;20774;-80
2023/07/03 00:11:34;;;;;;;17.50;10.37;;;;;;;18.40;78.26;97848.38;4146904;28;20728;-80
2023/07/03 00:13:37;;;;;;;17.90;9.33;;;;;;;18.38;78.59;97853.00;4152974;28;20621;-80
2023/07/03 00:15:40;;;;;;;18.13;9.90;;;;;;;18.36;78.55;97857.63;4152281;28;20730;-80
2023/07/03 00:17:45;;;;;;;19.73;10.37;;;;;;;18.35;77.81;97853.31;4166662;28;20637;-80
2023/07/03 00:19:48;;;;;;;16.23;9.90;;;;;;;18.33;78.03;97855.28;4159701;28;21007;-80
2023/07/03 00:21:51;;;;;;;16.27;9.80;;;;;;;18.30;77.68;97855.59;4158736;28;20634;-80
2023/07/03 00:23:54;;;;;;;19.20;10.03;;;;;;;18.32;78.54;97852.81;4142115;28;20646;-80
2023/07/03 00:25:57;;;;;;;15.43;10.23;;;;;;;18.31;78.47;97852.00;4150939;28;20685;-80
2023/07/03 00:28:02;;;;;;;16.20;9.60;;;;;;;18.33;78.68;97857.94;4135905;28;20643;-80
2023/07/03 00:30:06;;;;;;;18.60;10.13;;;;;;;18.31;79.26;97857.28;4149796;28;20644;-80
2023/07/03 00:32:10;;;;;;;15.93;9.43;;;;;;;18.31;79.23;97851.16;4154633;28;20635;-80
2023/07/03 00:34:13;;;;;;;18.23;10.60;;;;;;;18.29;79.00;97855.75;4150670;28;20663;-80
2023/07/03 00:36:17;;;;;;;19.97;10.50;;;;;;;18.27;79.29;97855.09;4134204;28;20646;-80
2023/07/03 00:38:20;;;;;;;21.70;10.73;;;;;;;18.28;78.95;97859.38;4151531;28;20633;-80
2023/07/03 00:40:24;;;;;;;16.60;8.80;;;;;;;18.29;79.02;97855.75;4155995;28;21185;-80
2023/07/03 00:42:28;;;;;;;18.13;10.87;;;;;;;18.29;78.83;97861.88;4167419;28;21221;-80
2023/07/03 00:44:33;;;;;;;16.57;10.03;;;;;;;18.25;79.39;97857.06;4155469;28;20655;-80
2023/07/03 00:46:36;;;;;;;16.73;10.37;;;;;;;18.20;79.61;97856.72;4167319;28;20641;-80
2023/07/03 00:48:41;;;;;;;17.43;9.53;;;;;;;18.17;79.81;97857.03;4136565;28;20645;-80
2023/07/03 00:50:44;;;;;;;19.20;10.50;;;;;;;18.15;79.57;97856.34;4158147;28;20636;-80
2023/07/03 00:52:51;;;;;;;17.47;10.47;;;;;;;18.14;80.62;97854.69;4140581;28;20653;-80
2023/07/03 00:54:55;;;;;;;17.47;9.80;;;;;;;18.16;80.29;97858.84;4158438;28;20676;-80
2023/07/03 00:56:58;;;;;;;18.53;9.27;;;;;;;18.14;80.65;97852.88;4133037;28;21223;-80
2023/07/03 00:59:02;;;;;;;20.87;11.00;;;;;;;18.15;80.64;97851.06;4140652;28;20630;-80
2023/07/03 01:01:15;;;;;;;20.77;10.50;;;;;;;18.18;80.46;97856.03;4158003;28;20720;-80
2023/07/03 01:03:24;;;;;;;16.90;9.53;;;;;;;18.17;81.34;97863.13;4140636;28;20660;-80
2023/07/03 01:05:30;;;;;;;16.43;10.33;;;;;;;18.13;81.43;97859.16;4140233;28;20714;-80
2023/07/03 01:07:36;;;;;;;16.47;10.43;;;;;;;18.13;81.21;97853.03;4145008;28;20630;-80
2023/07/03 01:09:45;;;;;;;14.50;9.83;;;;;;;18.13;80.90;97858.31;4146552;28;20610;-80
2023/07/03 01:11:49;;;;;;;16.20;9.70;;;;;;;18.12;80.86;97851.34;4154395;28;20624;-80
2023/07/03 01:13:53;;;;;;;17.47;10.23;;;;;;;18.12;80.93;97849.53;4154220;28;21236;-80
2023/07/03 01:15:57;;;;;;;15.87;9.77;;;;;;;18.13;80.49;97850.38;4153104;28;20635;-80
2023/07/03 01:18:03;;;;;;;18.63;10.57;;;;;;;18.10;80.99;97843.59;4141672;28;20706;-80
2023/07/03 01:20:09;;;;;;;15.80;10.10;;;;;;;18.09;81.04;97846.41;4136728;28;20727;-80
2023/07/03 01:22:17;;;;;;;16.47;9.90;;;;;;;18.08;81.86;97847.38;4139871;28;20636;-80
2023/07/03 01:24:32;;;;;;;19.00;10.90;;;;;;;18.05;81.75;97848.50;4134857;28;21034;-80
2023/07/03 01:26:36;;;;;;;21.60;11.20;;;;;;;18.06;82.38;97851.97;4147920;28;20675;-80
2023/07/03 01:28:40;;;;;;;19.17;10.70;;;;;;;18.07;81.72;97843.91;4153298;28;21294;-80
2023/07/03 01:30:44;;;;;;;15.93;10.10;;;;;;;18.07;82.04;97850.97;4137439;28;20642;-80
2023/07/03 01:32:49;;;;;;;17.30;10.07;;;;;;;18.08;81.37;97850.00;4140985;28;20631;-80
2023/07/03 01:34:53;;;;;;;18.80;10.20;;;;;;;18.07;80.70;97849.19;4154400;28;20663;-80
2023/07/03 01:36:58;;;;;;;20.67;10.73;;;;;;;18.06;81.26;97841.44;4138037;28;20658;-80
2023/07/03 01:39:02;;;;;;;17.33;10.50;;;;;;;18.05;81.29;97842.41;4153606;28;20718;-80
2023/07/03 01:41:07;;;;;;;14.50;9.73;;;;;;;18.04;81.58;97846.88;4138421;28;20641;-80
2023/07/03 01:43:11;;;;;;;17.20;10.90;;;;;;;18.02;81.38;97835.59;4140113;28;20634;-80
2023/07/03 01:45:14;;;;;;;18.13;11.03;;;;;;;18.03;80.24;97837.28;4146682;28;20663;-80
2023/07/03 01:47:17;;;;;;;18.17;10.20;;;;;;;18.02;81.09;97840.06;4157969;28;20686;-80
2023/07/03 01:49:20;;;;;;;19.07;10.20;;;;;;;18.02;81.60;97837.44;4139366;28;20746;-80
2023/07/03 01:51:34;;;;;;;16.23;10.20;;;;;;;18.01;82.05;97838.41;4155662;28;20648;-80
2023/07/03 01:53:42;;;;;;;18.60;10.03;;;;;;;18.01;82.04;97839.25;4144795;28;20633;-80
2023/07/03 01:55:51;;;;;;;18.07;10.37;;;;;;;17.98;81.12;97838.72;4150870;28;20659;-80
2023/07/03 01:58:01;;;;;;;18.63;11.17;;;;;;;17.96;80.65;97840.69;4139222;28;20638;-80
2023/07/03 02:00:07;;;;;;;21.17;10.17;;;;;;;17.96;80.77;97835.41;4139671;28;21078;-80
2023/07/03 02:02:16;;;;;;;15.90;10.30;;;;;;;17.94;81.16;97835.56;4151067;28;20632;-80
2023/07/03 02:04:26;;;;;;;20.73;11.87;;;;;;;17.93;81.54;97825.97;4155235;28;21256;-80
2023/07/03 02:06:36;;;;;;;19.27;11.33;;;;;;;17.92;81.60;97836.72;4139878;28;20650;-80
2023/07/03 02:08:40;;;;;;;19.53;10.70;;;;;;;17.92;82.25;97840.19;4156558;28;21234;-80
2023/07/03 02:10:43;;;;;;;18.77;11.30;;;;;;;17.92;82.17;97844.66;4143367;28;20640;-80
2023/07/03 02:12:46;;;;;;;18.53;11.30;;;;;;;17.90;82.35;97837.84;4148312;28;20668;-80
2023/07/03 02:14:55;;;;;;;17.87;10.60;;;;;;;17.88;83.13;97839.84;4132137;28;20728;-80
2023/07/03 02:16:58;;;;;;;16.53;10.93;;;;;;;17.88;82.70;97832.72;4137458;28;21301;-80
2023/07/03 02:19:02;;;;;;;18.40;11.10;;;;;;;17.88;83.13;97835.38;4153220;28;20702;-80
2023/07/03 02:21:06;;;;;;;22.20;12.13;;;;;;;17.88;82.14;97832.72;4156150;28;20624;-80
2023/07/03 02:23:09;;;;;;;17.70;11.10;;;;;;;17.87;82.26;97831.06;4152383;28;20629;-80
2023/07/03 02:25:18;;;;;;;20.87;11.30;;;;;;;17.87;82.88;97830.25;4141428;28;20685;-80
2023/07/03 02:27:21;;;;;;;19.80;10.90;;;;;;;17.86;82.14;97831.22;4129945;28;20643;-80
2023/07/03 02:29:24;;;;;;;19.40;11.00;;;;;;;17.87;82.50;97830.25;4149646;28;20640;-80
2023/07/03 02:31:29;;;;;;;20.17;10.77;;;;;;;17.86;82.86;97833.88;4148563;28;20669;-80
2023/07/03 02:33:32;;;;;;;18.57;11.17;;;;;;;17.83;83.07;97840.31;4155505;28;20698;-80
2023/07/03 02:35:37;;;;;;;16.30;10.23;;;;;;;17.85;83.66;97848.06;4135526;28;20634;-80
2023/07/03 02:37:41;;;;;;;22.17;11.80;;;;;;;17.85;83.14;97838.31;4140833;28;20648;-80
2023/07/03 02:39:44;;;;;;;18.67;11.00;;;;;;;17.85;83.64;97838.31;4153144;28;20633;-80
2023/07/03 02:41:47;;;;;;;19.83;11.80;;;;;;;17.87;83.65;97849.53;4147316;28;21098;-80
2023/07/03 02:43:51;;;;;;;20.60;11.13;;;;;;;17.86;83.03;97839.13;4140946;28;21436;-80
2023/07/03 02:45:54;;;;;;;18.13;11.43;;;;;;;17.85;82.73;97834.88;4130910;28;20681;-80
2023/07/03 02:47:59;;;;;;;17.40;10.80;;;;;;;17.86;82.81;97840.00;4146556;28;20636;-80
2023/07/03 02:50:03;;;;;;;19.37;11.37;;;;;;;17.86;82.93;97836.50;4157362;28;20730;-80
2023/07/03 02:52:07;;;;;;;19.93;11.93;;;;;;;17.84;82.33;97839.28;4150232;28;20727;-80
2023/07/03 02:54:11;;;;;;;18.70;10.57;;;;;;;17.83;83.01;97835.03;4138787;28;20637;-80
2023/07/03 02:56:16;;;;;;;25.80;12.47;;;;;;;17.83;82.48;97829.75;4143313;28;20632;-80
2023/07/03 02:58:21;;;;;;;17.30;10.63;;;;;;;17.83;83.33;97831.53;4138389;28;20633;-80
2023/07/03 03:00:24;;;;;;;18.10;10.23;;;;;;;17.83;82.78;97835.03;4138701;28;20640;-80
2023/07/03 03:02:28;;;;;;;18.60;10.93;;;;;;;17.84;82.95;97835.84;4154350;28;20644;-80
2023/07/03 03:04:32;;;;;;;18.60;10.60;;;;;;;17.84;82.17;97831.38;4155780;28;21242;-80
2023/07/03 03:06:36;;;;;;;20.13;11.73;;;;;;;17.84;82.91;97830.56;4141107;28;20648;-80
2023/07/03 03:08:39;;;;;;;20.10;11.00;;;;;;;17.82;83.06;97832.53;4138725;28;20636;-79
2023/07/03 03:10:44;;;;;;;16.20;10.33;;;;;;;17.81;83.38;97839.59;4137946;28;20733;-80
2023/07/03 03:12:47;;;;;;;23.73;12.87;;;;;;;17.81;82.50;97831.69;4168281;28;20650;-80
2023/07/03 03:14:52;;;;;;;20.60;11.53;;;;;;;17.80;83.03;97837.97;4158601;28;21000;-80
2023/07/03 03:16:55;;;;;;;17.97;11.27;;;;;;;17.80;82.81;97837.13;4152559;28;20631;-80
2023/07/03 03:18:59;;;;;;;21.60;11.40;;;;;;;17.80;82.70;97830.06;4132254;28;20638;-80
2023/07/03 03:21:03;;;;;;;20.27;11.57;;;;;;;17.79;82.74;97838.94;4141619;28;20668;-80
2023/07/03 03:23:06;;;;;;;21.13;12.23;;;;;;;17.78;83.37;97833.81;4152315;28;21295;-80
2023/07/03 03:25:10;;;;;;;20.97;11.80;;;;;;;17.78;83.39;97842.56;4149939;28;20685;-80
2023/07/03 03:27:13;;;;;;;17.87;11.87;;;;;;;17.78;84.32;97833.81;4137047;28;21364;-80
2023/07/03 03:29:19;;;;;;;19.07;12.00;;;;;;;17.78;83.79;97837.28;4139364;28;21228;-80
2023/07/03 03:31:22;;;;;;;18.47;10.93;;;;;;;17.75;83.94;97837.59;4147249;28;21233;-80
2023/07/03 03:33:33;;;;;;;23.50;12.63;;;;;;;17.72;84.12;97827.34;4137100;28;20694;-80
2023/07/03 03:35:36;;;;;;;21.53;12.40;;;;;;;17.74;84.06;97832.47;4158248;28;20641;-80
2023/07/03 03:37:41;;;;;;;18.23;11.30;;;;;;;17.75;84.22;97831.50;4157183;28;20637;-80
2023/07/03 03:39:44;;;;;;;19.17;11.37;;;;;;;17.76;84.05;97835.78;4157188;28;20636;-80
2023/07/03 03:41:48;;;;;;;20.60;11.67;;;;;;;17.76;85.33;97836.63;4150426;28;20667;-80
2023/07/03 03:43:51;;;;;;;18.57;12.03;;;;;;;17.77;83.69;97834.78;4138723;28;20675;-80
2023/07/03 03:45:59;;;;;;;20.70;11.60;;;;;;;17.76;85.36;97833.97;4141059;28;20663;-80
2023/07/03 03:48:03;;;;;;;20.43;11.90;;;;;;;17.74;84.97;97829.81;4166849;28;20619;-80
2023/07/03 03:50:08;;;;;;;18.43;10.50;;;;;;;17.74;84.71;97835.94;4168689;28;20737;-80
2023/07/03 03:52:15;;;;;;;21.53;12.13;;;;;;;17.76;85.63;97830.53;4153434;28;21299;-80
2023/07/03 03:54:20;;;;;;;21.27;12.40;;;;;;;17.78;85.26;97839.09;4151249;28;20625;-79
2023/07/03 03:56:23;;;;;;;20.07;11.40;;;;;;;17.80;85.26;97845.03;4161291;28;20630;-79
2023/07/03 03:58:26;;;;;;;20.23;11.67;;;;;;;17.82;85.66;97845.72;4153306;28;21502;-80
2023/07/03 04:00:29;;;;;;;16.27;10.93;;;;;;;17.84;85.45;97841.94;4159500;28;20644;-80
2023/07/03 04:02:33;;;;;;;20.97;11.40;;;;;;;17.86;85.90;97834.72;4153776;28;21038;-80
2023/07/03 04:04:36;;;;;;;19.87;10.57;;;;;;;17.88;86.25;97851.22;4136571;28;20682;-80
2023/07/03 04:06:39;;;;;;;22.27;12.27;;;;;;;17.91;85.64;97842.97;4143032;28;20738;-80
2023/07/03 04:08:42;;;;;;;20.87;11.37;;;;;;;17.93;84.75;97846.28;4153606;28;20727;-80
2023/07/03 04:10:47;;;;;;;20.07;11.17;;;;;;;17.95;85.88;97833.75;4147591;28;20755;-80
2023/07/03 04:12:51;;;;;;;17.30;10.63;;;;;;;17.98;85.18;97841.34;4154457;28;20684;-80
2023/07/03 04:14:54;;;;;;;21.30;11.03;;;;;;;17.99;84.79;97845.66;4154458;28;21287;-80
2023/07/03 04:16:58;;;;;;;23.33;12.03;;;;;;;18.01;85.67;97844.53;4151146;28;20727;-80
2023/07/03 04:19:01;;;;;;;21.40;11.27;;;;;;;18.01;86.30;97844.53;4151536;28;20628;-80
2023/07/03 04:21:04;;;;;;;19.20;11.40;;;;;;;18.04;86.76;97853.94;4148209;28;21212;-80
2023/07/03 04:23:07;;;;;;;21.57;11.57;;;;;;;18.05;86.56;97848.50;4150538;28;20725;-80
2023/07/03 04:25:11;;;;;;;19.97;11.33;;;;;;;18.06;86.67;97849.34;4147722;28;20675;-80
2023/07/03 04:27:16;;;;;;;19.30;11.27;;;;;;;18.10;86.76;97850.66;4154787;28;20639;-82
2023/07/03 04:29:19;;;;;;;19.20;11.03;;;;;;;18.12;86.67;97854.81;4169102;28;21101;-82
2023/07/03 04:31:22;;;;;;;18.47;10.97;;;;;;;18.14;86.22;97854.69;4134876;28;20730;-82
2023/07/03 04:33:25;;;;;;;22.10;12.60;;;;;;;18.16;86.07;97864.13;4152134;28;20689;-82
2023/07/03 04:35:28;;;;;;;19.60;11.60;;;;;;;18.18;85.76;97869.25;4152700;28;20655;-82
2023/07/03 04:37:31;;;;;;;22.77;11.87;;;;;;;18.17;84.52;97859.66;4149551;28;20779;-82
2023/07/03 04:39:34;;;;;;;22.13;11.83;;;;;;;18.17;84.33;97870.22;4129342;28;20737;-82
2023/07/03 04:41:37;;;;;;;18.43;11.40;;;;;;;18.19;84.19;97860.31;4147840;28;20643;-81
2023/07/03 04:43:44;;;;;;;33.00;11.70;;;;;;;18.20;84.32;97876.00;4141791;28;20646;-81
2023/07/03 04:45:49;;;;;;;19.53;12.27;;;;;;;18.23;84.31;97872.25;4122591;28;20665;-82
2023/07/03 04:47:53;;;;;;;18.60;10.73;;;;;;;18.24;83.85;97876.53;4128957;28;20640;-82
2023/07/03 04:49:58;;;;;;;21.20;11.90;;;;;;;18.24;83.64;97876.53;4131659;28;20737;-80
2023/07/03 04:52:03;;;;;;;20.17;12.53;;;;;;;18.28;84.23;97872.59;4142462;28;20632;-81
2023/07/03 04:54:06;;;;;;;21.87;12.07;;;;;;;18.30;85.61;97882.00;4139860;28;20673;-81
2023/07/03 04:56:11;;;;;;;20.93;12.83;;;;;;;18.31;85.46;97880.19;4155853;28;20656;-80
2023/07/03 04:58:14;;;;;;;22.53;12.00;;;;;;;18.34;85.53;97885.16;4155841;28;20636;-80
2023/07/03 05:00:20;;;;;;;19.77;11.93;;;;;;;18.38;86.15;97891.78;4137963;28;20632;-81
2023/07/03 05:02:23;;;;;;;19.37;11.10;;;;;;;18.41;86.75;97885.19;4156212;28;21087;-80
2023/07/03 05:04:27;;;;;;;19.63;11.47;;;;;;;18.44;86.48;97884.06;4158759;28;20664;-81
2023/07/03 05:06:30;;;;;;;18.37;11.37;;;;;;;18.45;86.46;97891.00;4137035;28;20696;-81
2023/07/03 05:08:33;;;;;;;20.37;12.27;;;;;;;18.48;86.91;97883.59;4155974;28;20666;-81
2023/07/03 05:10:36;;;;;;;23.00;12.63;;;;;;;18.52;87.66;97897.28;4141783;28;21867;-80
2023/07/03 05:12:40;;;;;;;21.47;11.47;;;;;;;18.55;86.50;97902.28;4130691;28;20633;-80
2023/07/03 05:14:43;;;;;;;21.20;11.00;;;;;;;18.56;85.54;97899.47;4151668;28;20701;-79
2023/07/03 05:16:47;;;;;;;18.53;11.40;;;;;;;18.58;84.72;97901.94;4140815;28;20692;-80
2023/07/03 05:18:51;;;;;;;20.30;11.90;;;;;;;18.58;83.76;97908.09;4131950;28;20636;-79
2023/07/03 05:20:54;;;;;;;21.23;13.10;;;;;;;18.56;83.10;97899.47;4118895;28;20655;-81
2023/07/03 05:22:58;;;;;;;22.90;12.13;;;;;;;18.58;84.45;97908.09;4104171;28;21366;-80
2023/07/03 05:25:01;;;;;;;18.90;11.70;;;;;;;18.62;83.81;97903.31;4148989;28;20636;-80
2023/07/03 05:27:05;;;;;;;19.27;10.43;;;;;;;18.65;83.71;97906.44;4129802;28;20692;-80
2023/07/03 05:29:08;;;;;;;17.17;11.23;;;;;;;18.70;84.61;97908.63;4149109;28;20650;-80
2023/07/03 05:31:11;;;;;;;22.67;11.67;;;;;;;18.70;84.65;97911.25;4147060;28;20629;-79
2023/07/03 05:33:16;;;;;;;20.47;12.33;;;;;;;18.73;85.64;97913.59;4149234;28;20732;-79
2023/07/03 05:35:19;;;;;;;19.20;12.10;;;;;;;18.72;85.27;97917.19;4146084;28;20628;-79
2023/07/03 05:37:22;;;;;;;17.90;11.63;;;;;;;18.73;85.41;97917.03;4151809;28;20631;-79
2023/07/03 05:39:26;;;;;;;21.93;11.93;;;;;;;18.77;85.12;97920.22;4151612;28;20631;-79
2023/07/03 05:41:29;;;;;;;21.67;11.87;;;;;;;18.80;85.48;97922.53;4153939;28;20689;-79
2023/07/03 05:43:32;;;;;;;21.83;11.20;;;;;;;18.85;85.98;97925.53;4156524;28;21371;-79
2023/07/03 05:45:35;;;;;;;19.20;10.60;;;;;;;18.89;84.63;97927.69;4151917;28;20655;-79
2023/07/03 05:47:38;;;;;;;17.37;10.63;;;;;;;18.95;84.61;97929.69;4158978;28;20649;-79
2023/07/03 05:49:43;;;;;;;19.80;11.20;;;;;;;19.00;83.73;97925.59;4157157;28;20726;-80
2023/07/03 05:51:46;;;;;;;16.40;10.90;;;;;;;19.05;83.91;97923.31;4151117;28;20639;-79
2023/07/03 05:53:50;;;;;;;18.67;11.70;;;;;;;19.10;83.37;97926.31;4150763;28;20655;-79
2023/07/03 05:55:55;;;;;;;18.60;10.80;;;;;;;19.18;83.37;97933.44;4132349;28;20643;-79
2023/07/03 05:57:58;;;;;;;14.60;9.90;;;;;;;19.24;82.40;97927.50;4149259;28;20645;-79
2023/07/03 06:00:01;;;;;;;17.30;10.27;;;;;;;19.29;83.34;97935.75;4151443;28;20641;-79
2023/07/03 06:02:15;;;;;;;17.27;11.43;;;;;;;19.35;82.70;97930.69;4147475;28;20625;-79
2023/07/03 06:04:19;;;;;;;20.60;11.00;;;;;;;19.44;83.39;97938.47;4149569;28;20671;-79
2023/07/03 06:06:23;;;;;;;17.53;10.93;;;;;;;19.54;83.04;97941.75;4159274;28;20621;-79
2023/07/03 06:08:26;;;;;;;19.57;10.83;;;;;;;19.61;83.82;97940.13;4153408;28;21184;-79
2023/07/03 06:10:29;;;;;;;20.03;11.83;;;;;;;19.71;83.58;97932.88;4152424;28;20636;-79
2023/07/03 06:12:33;;;;;;;20.67;11.37;;;;;;;19.81;83.02;97936.16;4152711;28;20657;-80
2023/07/03 06:14:36;;;;;;;21.93;10.70;;;;;;;19.90;82.62;97937.84;4152402;28;20659;-80
2023/07/03 06:16:39;;;;;;;16.63;10.20;;;;;;;20.00;81.98;97934.06;4145032;28;20666;-79
2023/07/03 06:18:42;;;;;;;18.70;10.83;;;;;;;20.12;81.53;97930.06;4144098;28;21000;-80
2023/07/03 06:20:45;;;;;;;16.30;9.43;;;;;;;20.16;79.55;97926.09;4151479;28;20636;-79
2023/07/03 06:22:51;;;;;;;21.30;9.93;;;;;;;20.22;79.61;97928.09;4144663;28;20631;-79
2023/07/03 06:24:54;;;;;;;16.17;9.93;;;;;;;20.32;78.78;97923.41;4156174;28;20667;-79
2023/07/03 06:26:58;;;;;;;21.57;11.80;;;;;;;20.38;77.70;97923.56;4152913;28;20749;-79
2023/07/03 06:29:02;;;;;;;15.80;9.70;;;;;;;20.50;79.40;97937.28;4154354;28;21139;-79
2023/07/03 06:31:05;;;;;;;19.80;10.37;;;;;;;20.63;78.86;97937.59;4150212;28;20745;-80
2023/07/03 06:33:09;;;;;;;16.70;10.10;;;;;;;20.71;80.08;97929.63;4152180;28;20642;-78
2023/07/03 06:35:12;;;;;;;14.93;9.80;;;;;;;20.71;77.45;97929.63;4151645;28;20642;-79
2023/07/03 06:37:15;;;;;;;21.30;9.23;;;;;;;20.71;76.49;97935.75;4149997;28;21202;-77
2023/07/03 06:39:20;;;;;;;17.30;10.10;;;;;;;20.73;77.05;97941.72;4134182;28;20627;-79
2023/07/03 06:41:24;;;;;;;17.73;9.43;;;;;;;20.81;78.44;97949.66;4142511;28;20642;-78
2023/07/03 06:43:27;;;;;;;18.70;10.20;;;;;;;20.87;78.40;97947.13;4148871;28;21010;-79
2023/07/03 06:45:31;;;;;;;18.13;9.93;;;;;;;20.87;75.69;97947.13;4138917;28;20714;-80
2023/07/03 06:47:34;;;;;;;16.27;9.47;;;;;;;20.89;77.38;97945.13;4141507;28;20760;-80
2023/07/03 06:49:37;;;;;;;15.53;9.70;;;;;;;20.98;77.82;97953.91;4130330;28;20679;-80
2023/07/03 06:51:41;;;;;;;17.97;9.33;;;;;;;21.01;77.19;97949.06;4152694;28;21028;-80
2023/07/03 06:53:44;;;;;;;23.53;9.87;;;;;;;21.02;75.24;97949.91;4148207;28;20676;-82
2023/07/03 06:55:48;;;;;;;13.73;8.77;;;;;;;21.00;74.92;97958.03;4155650;28;20666;-82
2023/07/03 06:57:52;;;;;;;12.77;8.50;;;;;;;21.00;76.10;97954.53;4158028;28;20638;-80
2023/07/03 06:59:55;;;;;;;15.67;10.47;;;;;;;21.07;76.56;97958.97;4136544;28;20632;-80
2023/07/03 07:01:58;;;;;;;17.63;9.07;;;;;;;21.11;75.13;97957.66;4153452;28;20743;-80
2023/07/03 07:04:01;;;;;;;16.90;9.70;;;;;;;21.21;75.93;97960.09;4152594;28;20731;-80
2023/07/03 07:06:09;;;;;;;16.90;9.80;;;;;;;21.31;77.28;97972.97;4156634;28;20634;-80
2023/07/03 07:08:16;;;;;;;15.43;7.80;;;;;;;21.31;74.52;97959.69;4153533;28;20661;-80
2023/07/03 07:10:19;;;;;;;14.30;8.57;;;;;;;21.30;73.91;97960.72;4145568;28;21103;-80
2023/07/03 07:12:24;;;;;;;14.80;8.63;;;;;;;21.33;73.93;97965.66;4126553;28;20758;-80
2023/07/03 07:14:27;;;;;;;15.23;8.80;;;;;;;21.34;73.66;97971.78;4153420;28;20631;-80
2023/07/03 07:16:33;;;;;;;14.70;8.63;;;;;;;21.38;74.50;97965.16;4134891;28;20680;-80
2023/07/03 07:18:37;;;;;;;13.73;8.77;;;;;;;21.39;72.80;97966.78;4148425;28;20630;-80
2023/07/03 07:20:41;;;;;;;12.67;7.70;;;;;;;21.43;72.70;97960.13;4152553;28;20857;-80
2023/07/03 07:22:44;;;;;;;13.50;8.70;;;;;;;21.50;73.42;97967.25;4152397;28;20646;-80
2023/07/03 07:24:47;;;;;;;15.70;8.20;;;;;;;21.56;72.29;97963.06;4156351;28;20733;-80
2023/07/03 07:26:54;;;;;;;14.20;8.70;;;;;;;21.69;72.82;97971.28;4151459;28;20662;-80
2023/07/03 07:28:59;;;;;;;12.67;7.10;;;;;;;21.84;70.98;97962.38;4139703;28;20652;-80
2023/07/03 07:31:02;;;;;;;13.97;8.37;;;;;;;21.91;69.96;97971.28;4135643;28;21293;-80
2023/07/03 07:33:06;;;;;;;12.53;7.60;;;;;;;22.01;70.14;97967.41;4152245;28;20798;-80
2023/07/03 07:35:09;;;;;;;14.03;8.13;;;;;;;22.10;70.56;97976.97;4163253;28;20645;-80
2023/07/03 07:37:13;;;;;;;14.60;7.33;;;;;;;22.20;69.23;97976.69;4162864;28;20678;-80
2023/07/03 07:39:19;;;;;;;11.00;7.57;;;;;;;22.24;69.05;97977.00;4151708;28;21197;-80
2023/07/03 07:41:22;;;;;;;13.83;7.23;;;;;;;22.32;68.88;97970.81;4148769;28;20633;-80
2023/07/03 07:43:26;;;;;;;9.43;6.53;;;;;;;22.41;69.26;97983.00;4133669;28;20659;-80
2023/07/03 07:45:31;;;;;;;13.20;7.00;;;;;;;22.54;69.06;97978.72;4148817;28;20695;-80
2023/07/03 07:47:34;;;;;;;12.13;6.93;;;;;;;22.67;67.25;97991.41;4148053;28;21171;-80
2023/07/03 07:49:39;;;;;;;12.00;7.43;;;;;;;22.76;67.68;97978.66;4145663;28;20640;-80
2023/07/03 07:51:42;;;;;;;12.53;7.33;;;;;;;22.85;66.64;97968.75;4131041;28;21207;-80
2023/07/03 07:53:45;;;;;;;12.47;6.67;;;;;;;22.87;66.39;97972.06;4160908;28;21061;-80
2023/07/03 07:55:49;;;;;;;11.77;7.27;;;;;;;22.88;67.23;97979.88;4147848;28;20627;-80
2023/07/03 07:57:52;;;;;;;12.40;6.90;;;;;;;22.92;66.76;97972.34;4147697;28;20627;-80
2023/07/03 07:59:55;;;;;;;11.47;7.07;;;;;;;22.90;67.91;97974.38;4143064;28;20719;-80
2023/07/03 08:02:00;;;;;;;10.70;6.97;;;;;;;22.92;66.93;97975.81;4140648;28;20659;-80
2023/07/03 08:04:03;;;;;;;12.77;7.10;;;;;;;22.98;67.42;97990.25;4136970;28;20675;-80
2023/07/03 08:06:07;;;;;;;13.87;8.40;;;;;;;23.05;66.87;97992.00;4146643;28;20680;-80
2023/07/03 08:08:10;;;;;;;11.77;6.50;;;;;;;23.06;66.75;97985.66;4128323;28;20650;-80
2023/07/03 08:10:14;;;;;;;11.93;7.30;;;;;;;23.05;67.23;97983.19;4164197;28;20652;-81
2023/07/03 08:12:17;;;;;;;11.87;6.90;;;;;;;23.14;66.52;97998.03;4145129;28;20631;-80
2023/07/03 08:14:20;;;;;;;11.47;6.87;;;;;;;23.12;66.33;97989.41;4152061;28;20678;-80
2023/07/03 08:16:24;;;;;;;11.87;6.70;;;;;;;23.22;66.96;97994.28;4150483;28;20978;-80
2023/07/03 08:18:29;;;;;;;9.77;6.30;;;;;;;23.33;65.56;97995.63;4135492;28;21041;-80
2023/07/03 08:20:32;;;;;;;11.03;6.60;;;;;;;23.41;66.23;97993.72;4153267;28;20637;-80
2023/07/03 08:22:35;;;;;;;11.77;7.03;;;;;;;23.49;65.31;97995.44;4159387;28;21499;-80
2023/07/03 08:24:39;;;;;;;11.10;7.30;;;;;;;23.72;67.14;97996.97;4126457;28;20653;-80
2023/07/03 08:26:49;;;;;;;14.03;7.33;;;;;;;24.10;66.72;97995.72;4152370;28;20668;-80
2023/07/03 08:28:52;;;;;;;13.50;7.93;;;;;;;24.57;65.06;97997.63;4150199;28;20672;-80
2023/07/03 08:30:57;;;;;;;10.33;7.47;;;;;;;24.94;63.24;98011.44;4153429;28;21282;-80
2023/07/03 08:33:01;;;;;;;11.63;7.30;;;;;;;25.22;61.83;98005.03;4155010;28;20640;-80
2023/07/03 08:35:07;;;;;;;12.23;6.73;;;;;;;25.58;61.92;98009.13;4152990;28;21060;-80
2023/07/03 08:37:13;;;;;;;11.83;7.03;;;;;;;25.70;60.51;98002.22;4156414;28;20723;-80
2023/07/03 08:39:16;;;;;;;10.97;7.53;;;;;;;25.53;61.82;98004.56;4140423;28;20664;-80
2023/07/03 08:41:20;;;;;;;12.70;7.40;;;;;;;25.42;61.78;97999.81;4150490;28;20662;-80
2023/07/03 08:43:23;;;;;;;10.70;6.20;;;;;;;25.66;61.71;98000.97;4152707;28;20893;-80
2023/07/03 08:45:30;;;;;;;11.93;7.83;;;;;;;25.94;61.37;98000.84;4134833;28;21011;-80
2023/07/03 08:47:34;;;;;;;11.10;6.47;;;;;;;25.68;60.13;97993.56;4149186;28;20629;-80
2023/07/03 08:49:37;;;;;;;10.50;6.50;;;;;;;25.80;62.81;97999.16;4154520;28;20656;-80
2023/07/03 08:51:43;;;;;;;9.47;6.40;;;;;;;25.77;60.12;98000.38;4136136;28;20713;-80
2023/07/03 08:53:53;;;;;;;12.63;6.50;;;;;;;25.51;60.57;97990.59;4157229;28;20721;-80
2023/07/03 08:55:58;;;;;;;9.60;5.47;;;;;;;25.34;59.90;97992.78;4155782;28;20633;-81
2023/07/03 08:58:02;;;;;;;11.07;6.07;;;;;;;25.28;60.04;97984.75;4150999;28;20733;-80
2023/07/03 09:00:10;;;;;;;11.73;6.83;;;;;;;25.40;60.18;97983.97;4154164;28;20646;-80
2023/07/03 09:02:20;;;;;;;9.00;7.20;;;;;;;25.64;60.10;97995.00;4158146;28;20624;-80
2023/07/03 09:04:39;;;;;;;9.70;5.67;;;;;;;25.75;59.85;97999.75;4150231;28;20766;-80
2023/07/03 09:06:48;;;;;;;11.47;6.40;;;;;;;25.88;58.65;97999.78;4133129;28;20664;-80
2023/07/03 09:08:59;;;;;;;10.80;5.87;;;;;;;25.80;58.54;97996.47;4150918;28;20655;-80
2023/07/03 09:11:03;;;;;;;9.63;5.63;;;;;;;25.69;59.49;97981.88;4146038;28;21270;-80
2023/07/03 09:13:08;;;;;;;10.00;6.03;;;;;;;25.90;59.30;97996.91;4128905;28;20744;-80
2023/07/03 09:15:18;;;;;;;9.70;5.80;;;;;;;26.13;58.24;97993.69;4142987;28;20684;-80
2023/07/03 09:17:22;;;;;;;9.97;6.00;;;;;;;26.24;58.57;98001.09;4151960;28;21062;-81
2023/07/03 09:19:26;;;;;;;8.10;5.87;;;;;;;26.36;57.88;97996.81;4138514;28;20617;-81
2023/07/03 09:21:31;;;;;;;11.03;6.03;;;;;;;26.47;57.65;98001.56;4146566;28;20748;-80
2023/07/03 09:23:39;;;;;;;10.57;6.03;;;;;;;26.61;57.92;97989.81;4153077;28;20639;-80
2023/07/03 09:25:46;;;;;;;11.87;6.13;;;;;;;26.50;57.83;97993.13;4152438;28;20658;-81
2023/07/03 09:27:54;;;;;;;12.70;5.63;;;;;;;26.37;56.18;97990.44;4134724;28;20697;-80
2023/07/03 09:30:00;;;;;;;10.60;6.67;;;;;;;26.41;57.12;97994.34;4150134;28;20652;-80
2023/07/03 09:32:04;;;;;;;8.27;5.27;;;;;;;26.56;57.45;97994.97;4151812;28;20643;-80
2023/07/03 09:34:08;;;;;;;8.80;5.97;;;;;;;26.67;55.37;97991.66;4151239;28;20630;-80
2023/07/03 09:36:24;;;;;;;10.67;5.47;;;;;;;26.66;54.91;97987.34;4154435;28;20634;-81